Hlavní strana
METAR-TAF:

METAR-TAF

Letiště :

Uppsala, Švédsko

zeměpisná šířka: 59-53N, zeměpisná délka: 017-36E, výška: 21 m

Aktuální stav počasí

Zpráva byla vytvořena před 25 minutami, v 06:20 UTC
Jihojihozápadní vítr 3 kt, proměnlivý mezi jižním a západojihozápadním
Teplota 6°C
Vlhkost vzduchu 100%
Tlak 1012 hPa
Viditelnost 10 km a více

METAR: ESCM 130620Z AUTO 21003KT 170V250 9999 OVC021/// 06/06 Q1012

Čas: 07:45 (06:45 UTC)

Předpověď počasí

Zpráva byla vytvořena před 17 hodinami a 15 minutami, v 13:30 UTC
Předpověď platná od 12 v 13 UTC do 12 v 15 UTC
Jižní vítr 6 kt
Viditelnost: 6000 m
Zataženo ve výšce 600 ft
slabé mrholení
Změna
od 12 v 13 UTC do 12 v 14 UTC
Oblačno až skoro zataženo ve výšce 1500 ft
Změna
od 12 v 14 UTC do 12 v 15 UTC
Viditelnost: 4000 m
Oblačno až skoro zataženo ve výšce 700 ft
kouřmo

TAF: ESCM 121330Z 1213/1215 19006KT 6000 -DZ OVC006 BECMG 1213/1214 NSW BKN015 BECMG 1214/1215 4000 BR BKN007 RMK MIL

Stav a předpovědi počasí z více než 4 000 letišť (zprávy METAR a TAF).

Červené a žluté tečky na mapě představují dostupné meteorologické stanice.

Když kurzor umístíte na tečku, zobrazí se název stanice.

Pak kliknutím zobrazíte stav a předpověď počasí.

Chcete-li změnit mapu, kliknutím na zelené tlačítko se znaménkem +mapu přiblížíte, kliknutím na zelené tlačítko se znaménkem – mapu oddálíte a kliknutím na zelené šipky přejdete na sousední mapy.


METAR-TAF: